sensor_id;sensor_type;location;lat;lon;timestamp;temperature;humidity
3528;DHT22;1778;47.966;7.854;2023-06-24T00:00:49;15.80;99.90
3528;DHT22;1778;47.966;7.854;2023-06-24T00:01:53;15.80;99.90
3528;DHT22;1778;47.966;7.854;2023-06-24T00:02:55;15.90;99.90
3528;DHT22;1778;47.966;7.854;2023-06-24T00:03:57;15.90;99.90
3528;DHT22;1778;47.966;7.854;2023-06-24T00:04:59;15.80;99.90
3528;DHT22;1778;47.966;7.854;2023-06-24T00:06:02;15.90;99.90
3528;DHT22;1778;47.966;7.854;2023-06-24T00:07:04;15.90;99.90
3528;DHT22;1778;47.966;7.854;2023-06-24T00:08:06;15.80;99.90
3528;DHT22;1778;47.966;7.854;2023-06-24T00:09:09;15.80;99.90
3528;DHT22;1778;47.966;7.854;2023-06-24T00:10:14;15.80;99.90
3528;DHT22;1778;47.966;7.854;2023-06-24T00:11:18;15.80;99.90
3528;DHT22;1778;47.966;7.854;2023-06-24T00:12:20;15.80;99.90
3528;DHT22;1778;47.966;7.854;2023-06-24T00:13:22;15.80;99.90
3528;DHT22;1778;47.966;7.854;2023-06-24T00:14:25;15.80;99.90
3528;DHT22;1778;47.966;7.854;2023-06-24T00:15:27;15.80;99.90
3528;DHT22;1778;47.966;7.854;2023-06-24T00:16:29;15.80;99.90
3528;DHT22;1778;47.966;7.854;2023-06-24T00:17:30;15.80;99.90
3528;DHT22;1778;47.966;7.854;2023-06-24T00:18:36;15.80;99.90
3528;DHT22;1778;47.966;7.854;2023-06-24T00:19:37;15.80;99.90
3528;DHT22;1778;47.966;7.854;2023-06-24T00:20:39;15.80;99.90
3528;DHT22;1778;47.966;7.854;2023-06-24T00:21:44;15.80;99.90
3528;DHT22;1778;47.966;7.854;2023-06-24T00:22:46;15.80;99.90
3528;DHT22;1778;47.966;7.854;2023-06-24T00:23:50;15.70;99.90
3528;DHT22;1778;47.966;7.854;2023-06-24T00:24:51;15.80;99.90
3528;DHT22;1778;47.966;7.854;2023-06-24T00:25:54;15.70;99.90
3528;DHT22;1778;47.966;7.854;2023-06-24T00:26:56;15.70;99.90
3528;DHT22;1778;47.966;7.854;2023-06-24T00:28:01;15.70;99.90
3528;DHT22;1778;47.966;7.854;2023-06-24T00:29:04;15.70;99.90
3528;DHT22;1778;47.966;7.854;2023-06-24T00:30:06;15.80;99.90
3528;DHT22;1778;47.966;7.854;2023-06-24T00:31:09;15.80;99.90
3528;DHT22;1778;47.966;7.854;2023-06-24T00:32:13;15.80;99.90
3528;DHT22;1778;47.966;7.854;2023-06-24T00:33:15;15.80;99.90
3528;DHT22;1778;47.966;7.854;2023-06-24T00:34:18;15.80;99.90
3528;DHT22;1778;47.966;7.854;2023-06-24T00:35:21;15.80;99.90
3528;DHT22;1778;47.966;7.854;2023-06-24T00:36:23;15.80;99.90
3528;DHT22;1778;47.966;7.854;2023-06-24T00:37:25;15.80;99.90
3528;DHT22;1778;47.966;7.854;2023-06-24T00:38:28;15.80;99.90
3528;DHT22;1778;47.966;7.854;2023-06-24T00:39:34;15.70;99.90
3528;DHT22;1778;47.966;7.854;2023-06-24T00:40:37;15.70;99.90
3528;DHT22;1778;47.966;7.854;2023-06-24T00:41:39;15.70;99.90
3528;DHT22;1778;47.966;7.854;2023-06-24T00:42:41;15.60;99.90
3528;DHT22;1778;47.966;7.854;2023-06-24T00:43:45;15.60;99.90
3528;DHT22;1778;47.966;7.854;2023-06-24T00:44:47;15.60;99.90
3528;DHT22;1778;47.966;7.854;2023-06-24T00:45:50;15.70;99.90
3528;DHT22;1778;47.966;7.854;2023-06-24T00:46:54;15.60;99.90
3528;DHT22;1778;47.966;7.854;2023-06-24T00:47:56;15.60;99.90
3528;DHT22;1778;47.966;7.854;2023-06-24T00:49:00;15.60;99.90
3528;DHT22;1778;47.966;7.854;2023-06-24T00:50:07;15.60;99.90
3528;DHT22;1778;47.966;7.854;2023-06-24T00:51:09;15.60;99.90
3528;DHT22;1778;47.966;7.854;2023-06-24T00:52:11;15.60;99.90
3528;DHT22;1778;47.966;7.854;2023-06-24T00:53:17;15.60;99.90
3528;DHT22;1778;47.966;7.854;2023-06-24T00:54:19;15.60;99.90
3528;DHT22;1778;47.966;7.854;2023-06-24T00:55:21;15.60;99.90
3528;DHT22;1778;47.966;7.854;2023-06-24T00:56:27;15.60;99.90
3528;DHT22;1778;47.966;7.854;2023-06-24T00:57:29;15.60;99.90
3528;DHT22;1778;47.966;7.854;2023-06-24T00:58:32;15.60;99.90
3528;DHT22;1778;47.966;7.854;2023-06-24T00:59:36;15.50;99.90
3528;DHT22;1778;47.966;7.854;2023-06-24T01:00:39;15.50;99.90
3528;DHT22;1778;47.966;7.854;2023-06-24T01:01:40;15.50;99.90
3528;DHT22;1778;47.966;7.854;2023-06-24T01:02:43;15.50;99.90
3528;DHT22;1778;47.966;7.854;2023-06-24T01:03:46;15.40;99.90
3528;DHT22;1778;47.966;7.854;2023-06-24T01:04:48;15.40;99.90
3528;DHT22;1778;47.966;7.854;2023-06-24T01:05:49;15.40;99.90
3528;DHT22;1778;47.966;7.854;2023-06-24T01:06:52;15.40;99.90
3528;DHT22;1778;47.966;7.854;2023-06-24T01:07:55;15.50;99.90
3528;DHT22;1778;47.966;7.854;2023-06-24T01:08:58;15.50;99.90
3528;DHT22;1778;47.966;7.854;2023-06-24T01:10:03;15.40;99.90
3528;DHT22;1778;47.966;7.854;2023-06-24T01:11:07;15.40;99.90
3528;DHT22;1778;47.966;7.854;2023-06-24T01:12:08;15.40;99.90
3528;DHT22;1778;47.966;7.854;2023-06-24T01:13:10;15.40;99.90
3528;DHT22;1778;47.966;7.854;2023-06-24T01:14:12;15.40;99.90
3528;DHT22;1778;47.966;7.854;2023-06-24T01:15:17;15.40;99.90
3528;DHT22;1778;47.966;7.854;2023-06-24T01:18:02;15.50;99.90
3528;DHT22;1778;47.966;7.854;2023-06-24T01:21:03;15.50;99.90
3528;DHT22;1778;47.966;7.854;2023-06-24T01:22:14;15.50;99.90
3528;DHT22;1778;47.966;7.854;2023-06-24T01:25:59;15.30;99.90
3528;DHT22;1778;47.966;7.854;2023-06-24T01:32:45;15.20;99.90
3528;DHT22;1778;47.966;7.854;2023-06-24T01:35:16;15.10;99.90
3528;DHT22;1778;47.966;7.854;2023-06-24T01:36:24;15.10;99.90
3528;DHT22;1778;47.966;7.854;2023-06-24T01:37:43;15.00;99.90
3528;DHT22;1778;47.966;7.854;2023-06-24T01:38:54;15.00;99.90
3528;DHT22;1778;47.966;7.854;2023-06-24T01:41:14;15.00;99.90
3528;DHT22;1778;47.966;7.854;2023-06-24T01:42:18;15.00;99.90
3528;DHT22;1778;47.966;7.854;2023-06-24T01:43:23;15.00;99.90
3528;DHT22;1778;47.966;7.854;2023-06-24T01:44:27;15.00;99.90
3528;DHT22;1778;47.966;7.854;2023-06-24T01:45:37;14.90;99.90
3528;DHT22;1778;47.966;7.854;2023-06-24T01:46:42;14.90;99.90
3528;DHT22;1778;47.966;7.854;2023-06-24T01:47:47;14.90;99.90
3528;DHT22;1778;47.966;7.854;2023-06-24T01:48:50;14.80;99.90
3528;DHT22;1778;47.966;7.854;2023-06-24T01:49:57;14.80;99.90
3528;DHT22;1778;47.966;7.854;2023-06-24T01:51:07;14.80;99.90
3528;DHT22;1778;47.966;7.854;2023-06-24T01:52:10;14.80;99.90
3528;DHT22;1778;47.966;7.854;2023-06-24T01:53:13;14.80;99.90
3528;DHT22;1778;47.966;7.854;2023-06-24T01:54:18;14.80;99.90
3528;DHT22;1778;47.966;7.854;2023-06-24T01:55:21;14.80;99.90
3528;DHT22;1778;47.966;7.854;2023-06-24T01:56:26;14.80;99.90
3528;DHT22;1778;47.966;7.854;2023-06-24T01:57:31;14.80;99.90
3528;DHT22;1778;47.966;7.854;2023-06-24T01:58:34;14.80;99.90
3528;DHT22;1778;47.966;7.854;2023-06-24T01:59:39;14.80;99.90
3528;DHT22;1778;47.966;7.854;2023-06-24T02:00:43;14.80;99.90
3528;DHT22;1778;47.966;7.854;2023-06-24T02:01:45;14.80;99.90
3528;DHT22;1778;47.966;7.854;2023-06-24T02:02:47;14.80;99.90
3528;DHT22;1778;47.966;7.854;2023-06-24T02:03:52;14.80;99.90
3528;DHT22;1778;47.966;7.854;2023-06-24T02:04:55;14.80;99.90
3528;DHT22;1778;47.966;7.854;2023-06-24T02:05:57;14.80;99.90
3528;DHT22;1778;47.966;7.854;2023-06-24T02:07:01;14.80;99.90
3528;DHT22;1778;47.966;7.854;2023-06-24T02:08:05;14.80;99.90
3528;DHT22;1778;47.966;7.854;2023-06-24T02:09:10;14.80;99.90
3528;DHT22;1778;47.966;7.854;2023-06-24T02:10:15;14.80;99.90
3528;DHT22;1778;47.966;7.854;2023-06-24T02:11:19;14.70;99.90
3528;DHT22;1778;47.966;7.854;2023-06-24T02:12:24;14.70;99.90
3528;DHT22;1778;47.966;7.854;2023-06-24T02:13:26;14.70;99.90
3528;DHT22;1778;47.966;7.854;2023-06-24T02:14:29;14.70;99.90
3528;DHT22;1778;47.966;7.854;2023-06-24T02:15:33;14.70;99.90
3528;DHT22;1778;47.966;7.854;2023-06-24T02:16:37;14.70;99.90
3528;DHT22;1778;47.966;7.854;2023-06-24T02:17:44;14.70;99.90
3528;DHT22;1778;47.966;7.854;2023-06-24T02:18:49;14.70;99.90
3528;DHT22;1778;47.966;7.854;2023-06-24T02:19:54;14.70;99.90
3528;DHT22;1778;47.966;7.854;2023-06-24T02:20:59;14.70;99.90
3528;DHT22;1778;47.966;7.854;2023-06-24T02:22:02;14.60;99.90
3528;DHT22;1778;47.966;7.854;2023-06-24T02:23:07;14.60;99.90
3528;DHT22;1778;47.966;7.854;2023-06-24T02:24:10;14.60;99.90
3528;DHT22;1778;47.966;7.854;2023-06-24T02:25:13;14.60;99.90
3528;DHT22;1778;47.966;7.854;2023-06-24T02:26:15;14.60;99.90
3528;DHT22;1778;47.966;7.854;2023-06-24T02:27:17;14.60;99.90
3528;DHT22;1778;47.966;7.854;2023-06-24T02:28:18;14.60;99.90
3528;DHT22;1778;47.966;7.854;2023-06-24T02:29:21;14.60;99.90
3528;DHT22;1778;47.966;7.854;2023-06-24T02:30:24;14.60;99.90
3528;DHT22;1778;47.966;7.854;2023-06-24T02:31:26;14.60;99.90
3528;DHT22;1778;47.966;7.854;2023-06-24T02:32:29;14.60;99.90
3528;DHT22;1778;47.966;7.854;2023-06-24T02:33:31;14.60;99.90
3528;DHT22;1778;47.966;7.854;2023-06-24T02:34:33;14.60;99.90
3528;DHT22;1778;47.966;7.854;2023-06-24T02:35:34;14.60;99.90
3528;DHT22;1778;47.966;7.854;2023-06-24T02:36:37;14.60;99.90
3528;DHT22;1778;47.966;7.854;2023-06-24T02:37:39;14.60;99.90
3528;DHT22;1778;47.966;7.854;2023-06-24T02:38:41;14.50;99.90
3528;DHT22;1778;47.966;7.854;2023-06-24T02:39:43;14.50;99.90
3528;DHT22;1778;47.966;7.854;2023-06-24T02:40:46;14.50;99.90
3528;DHT22;1778;47.966;7.854;2023-06-24T02:41:48;14.50;99.90
3528;DHT22;1778;47.966;7.854;2023-06-24T02:42:51;14.50;99.90
3528;DHT22;1778;47.966;7.854;2023-06-24T02:43:52;14.50;99.90
3528;DHT22;1778;47.966;7.854;2023-06-24T02:44:54;14.50;99.90
3528;DHT22;1778;47.966;7.854;2023-06-24T02:45:55;14.50;99.90
3528;DHT22;1778;47.966;7.854;2023-06-24T02:46:57;14.50;99.90
3528;DHT22;1778;47.966;7.854;2023-06-24T02:48:00;14.50;99.90
3528;DHT22;1778;47.966;7.854;2023-06-24T02:49:02;14.50;99.90
3528;DHT22;1778;47.966;7.854;2023-06-24T02:50:06;14.50;99.90
3528;DHT22;1778;47.966;7.854;2023-06-24T02:51:10;14.40;99.90
3528;DHT22;1778;47.966;7.854;2023-06-24T02:52:12;14.40;99.90
3528;DHT22;1778;47.966;7.854;2023-06-24T02:53:15;14.40;99.90
3528;DHT22;1778;47.966;7.854;2023-06-24T02:54:18;14.40;99.90
3528;DHT22;1778;47.966;7.854;2023-06-24T02:55:40;14.40;99.90
3528;DHT22;1778;47.966;7.854;2023-06-24T02:56:42;14.40;99.90
3528;DHT22;1778;47.966;7.854;2023-06-24T02:57:51;14.40;99.90
3528;DHT22;1778;47.966;7.854;2023-06-24T02:59:13;14.30;99.90
3528;DHT22;1778;47.966;7.854;2023-06-24T03:00:15;14.30;99.90
3528;DHT22;1778;47.966;7.854;2023-06-24T03:01:38;14.30;99.90
3528;DHT22;1778;47.966;7.854;2023-06-24T03:02:42;14.30;99.90
3528;DHT22;1778;47.966;7.854;2023-06-24T03:03:44;14.30;99.90
3528;DHT22;1778;47.966;7.854;2023-06-24T03:04:51;14.30;99.90
3528;DHT22;1778;47.966;7.854;2023-06-24T03:05:54;14.30;99.90
3528;DHT22;1778;47.966;7.854;2023-06-24T03:07:00;14.30;99.90
3528;DHT22;1778;47.966;7.854;2023-06-24T03:08:02;14.30;99.90
3528;DHT22;1778;47.966;7.854;2023-06-24T03:09:06;14.30;99.90
3528;DHT22;1778;47.966;7.854;2023-06-24T03:10:10;14.30;99.90
3528;DHT22;1778;47.966;7.854;2023-06-24T03:11:13;14.30;99.90
3528;DHT22;1778;47.966;7.854;2023-06-24T03:12:15;14.30;99.90
3528;DHT22;1778;47.966;7.854;2023-06-24T03:13:17;14.30;99.90
3528;DHT22;1778;47.966;7.854;2023-06-24T03:14:24;14.30;99.90
3528;DHT22;1778;47.966;7.854;2023-06-24T03:15:27;14.30;99.90
3528;DHT22;1778;47.966;7.854;2023-06-24T03:16:29;14.30;99.90
3528;DHT22;1778;47.966;7.854;2023-06-24T03:17:38;14.30;99.90
3528;DHT22;1778;47.966;7.854;2023-06-24T03:18:41;14.30;99.90
3528;DHT22;1778;47.966;7.854;2023-06-24T03:19:43;14.40;99.90
3528;DHT22;1778;47.966;7.854;2023-06-24T03:20:44;14.30;99.90
3528;DHT22;1778;47.966;7.854;2023-06-24T03:21:50;14.30;99.90
3528;DHT22;1778;47.966;7.854;2023-06-24T03:22:52;14.30;99.90
3528;DHT22;1778;47.966;7.854;2023-06-24T03:23:55;14.30;99.90
3528;DHT22;1778;47.966;7.854;2023-06-24T03:24:58;14.30;99.90
3528;DHT22;1778;47.966;7.854;2023-06-24T03:26:00;14.30;99.90
3528;DHT22;1778;47.966;7.854;2023-06-24T03:27:04;14.30;99.90
3528;DHT22;1778;47.966;7.854;2023-06-24T03:28:13;14.30;99.90
3528;DHT22;1778;47.966;7.854;2023-06-24T03:29:20;14.30;99.90
3528;DHT22;1778;47.966;7.854;2023-06-24T03:30:31;14.20;99.90
3528;DHT22;1778;47.966;7.854;2023-06-24T03:31:32;14.20;99.90
3528;DHT22;1778;47.966;7.854;2023-06-24T03:32:34;14.20;99.90
3528;DHT22;1778;47.966;7.854;2023-06-24T03:33:37;14.20;99.90
3528;DHT22;1778;47.966;7.854;2023-06-24T03:34:40;14.20;99.90
3528;DHT22;1778;47.966;7.854;2023-06-24T03:35:43;14.20;99.90
3528;DHT22;1778;47.966;7.854;2023-06-24T03:36:48;14.30;99.90
3528;DHT22;1778;47.966;7.854;2023-06-24T03:37:50;14.20;99.90
3528;DHT22;1778;47.966;7.854;2023-06-24T03:38:51;14.20;99.90
3528;DHT22;1778;47.966;7.854;2023-06-24T03:39:53;14.20;99.90
3528;DHT22;1778;47.966;7.854;2023-06-24T03:40:55;14.20;99.90
3528;DHT22;1778;47.966;7.854;2023-06-24T03:41:57;14.20;99.90
3528;DHT22;1778;47.966;7.854;2023-06-24T03:42:59;14.20;99.90
3528;DHT22;1778;47.966;7.854;2023-06-24T03:44:00;14.20;99.90
3528;DHT22;1778;47.966;7.854;2023-06-24T03:45:03;14.20;99.90
3528;DHT22;1778;47.966;7.854;2023-06-24T03:46:05;14.20;99.90
3528;DHT22;1778;47.966;7.854;2023-06-24T03:47:07;14.20;99.90
3528;DHT22;1778;47.966;7.854;2023-06-24T03:48:10;14.20;99.90
3528;DHT22;1778;47.966;7.854;2023-06-24T03:49:11;14.20;99.90
3528;DHT22;1778;47.966;7.854;2023-06-24T03:50:13;14.20;99.90
3528;DHT22;1778;47.966;7.854;2023-06-24T03:51:15;14.30;99.90
3528;DHT22;1778;47.966;7.854;2023-06-24T03:52:17;14.30;99.90
3528;DHT22;1778;47.966;7.854;2023-06-24T03:53:19;14.30;99.90
3528;DHT22;1778;47.966;7.854;2023-06-24T03:54:21;14.20;99.90
3528;DHT22;1778;47.966;7.854;2023-06-24T03:55:23;14.30;99.90
3528;DHT22;1778;47.966;7.854;2023-06-24T03:56:24;14.30;99.90
3528;DHT22;1778;47.966;7.854;2023-06-24T03:57:26;14.30;99.90
3528;DHT22;1778;47.966;7.854;2023-06-24T03:58:28;14.30;99.90
3528;DHT22;1778;47.966;7.854;2023-06-24T03:59:29;14.30;99.90
3528;DHT22;1778;47.966;7.854;2023-06-24T04:00:31;14.30;99.90
3528;DHT22;1778;47.966;7.854;2023-06-24T04:01:32;14.30;99.90
3528;DHT22;1778;47.966;7.854;2023-06-24T04:02:34;14.30;99.90
3528;DHT22;1778;47.966;7.854;2023-06-24T04:03:36;14.30;99.90
3528;DHT22;1778;47.966;7.854;2023-06-24T04:04:38;14.30;99.90
3528;DHT22;1778;47.966;7.854;2023-06-24T04:05:39;14.30;99.90
3528;DHT22;1778;47.966;7.854;2023-06-24T04:06:41;14.30;99.90
3528;DHT22;1778;47.966;7.854;2023-06-24T04:07:45;14.30;99.90
3528;DHT22;1778;47.966;7.854;2023-06-24T04:08:54;14.30;99.90
3528;DHT22;1778;47.966;7.854;2023-06-24T04:09:56;14.20;99.90
3528;DHT22;1778;47.966;7.854;2023-06-24T04:10:59;14.30;99.90
3528;DHT22;1778;47.966;7.854;2023-06-24T04:12:01;14.30;99.90
3528;DHT22;1778;47.966;7.854;2023-06-24T04:13:08;14.30;99.90
3528;DHT22;1778;47.966;7.854;2023-06-24T04:14:09;14.30;99.90
3528;DHT22;1778;47.966;7.854;2023-06-24T04:15:12;14.30;99.90
3528;DHT22;1778;47.966;7.854;2023-06-24T04:16:14;14.30;99.90
3528;DHT22;1778;47.966;7.854;2023-06-24T04:17:15;14.30;99.90
3528;DHT22;1778;47.966;7.854;2023-06-24T04:18:19;14.40;99.90
3528;DHT22;1778;47.966;7.854;2023-06-24T04:19:21;14.40;99.90
3528;DHT22;1778;47.966;7.854;2023-06-24T04:20:23;14.40;99.90
3528;DHT22;1778;47.966;7.854;2023-06-24T04:21:25;14.30;99.90
3528;DHT22;1778;47.966;7.854;2023-06-24T04:22:27;14.30;99.90
3528;DHT22;1778;47.966;7.854;2023-06-24T04:23:32;14.30;99.90
3528;DHT22;1778;47.966;7.854;2023-06-24T04:24:33;14.40;99.90
3528;DHT22;1778;47.966;7.854;2023-06-24T04:25:35;14.40;99.90
3528;DHT22;1778;47.966;7.854;2023-06-24T04:26:37;14.40;99.90
3528;DHT22;1778;47.966;7.854;2023-06-24T04:27:39;14.30;99.90
3528;DHT22;1778;47.966;7.854;2023-06-24T04:28:42;14.40;99.90
3528;DHT22;1778;47.966;7.854;2023-06-24T04:29:44;14.40;99.90
3528;DHT22;1778;47.966;7.854;2023-06-24T04:30:45;14.40;99.90
3528;DHT22;1778;47.966;7.854;2023-06-24T04:31:48;14.40;99.90
3528;DHT22;1778;47.966;7.854;2023-06-24T04:32:50;14.40;99.90
3528;DHT22;1778;47.966;7.854;2023-06-24T04:33:52;14.40;99.90
3528;DHT22;1778;47.966;7.854;2023-06-24T04:34:53;14.40;99.90
3528;DHT22;1778;47.966;7.854;2023-06-24T04:35:56;14.40;99.90
3528;DHT22;1778;47.966;7.854;2023-06-24T04:36:58;14.40;99.90
3528;DHT22;1778;47.966;7.854;2023-06-24T04:38:01;14.40;99.90
3528;DHT22;1778;47.966;7.854;2023-06-24T04:39:03;14.40;99.90
3528;DHT22;1778;47.966;7.854;2023-06-24T04:40:05;14.50;99.90
3528;DHT22;1778;47.966;7.854;2023-06-24T04:41:07;14.50;99.90
3528;DHT22;1778;47.966;7.854;2023-06-24T04:42:09;14.50;99.90
3528;DHT22;1778;47.966;7.854;2023-06-24T04:43:11;14.50;99.90
3528;DHT22;1778;47.966;7.854;2023-06-24T04:44:13;14.50;99.90
3528;DHT22;1778;47.966;7.854;2023-06-24T04:45:15;14.50;99.90
3528;DHT22;1778;47.966;7.854;2023-06-24T04:46:17;14.60;99.90
3528;DHT22;1778;47.966;7.854;2023-06-24T04:47:18;14.60;99.90
3528;DHT22;1778;47.966;7.854;2023-06-24T04:48:20;14.60;99.90
3528;DHT22;1778;47.966;7.854;2023-06-24T04:49:22;14.60;99.90
3528;DHT22;1778;47.966;7.854;2023-06-24T04:50:24;14.60;99.90
3528;DHT22;1778;47.966;7.854;2023-06-24T04:51:25;14.60;99.90
3528;DHT22;1778;47.966;7.854;2023-06-24T04:52:27;14.60;99.90
3528;DHT22;1778;47.966;7.854;2023-06-24T04:53:28;14.60;99.90
3528;DHT22;1778;47.966;7.854;2023-06-24T04:54:30;14.70;99.90
3528;DHT22;1778;47.966;7.854;2023-06-24T04:55:32;14.70;99.90
3528;DHT22;1778;47.966;7.854;2023-06-24T04:56:34;14.70;99.90
3528;DHT22;1778;47.966;7.854;2023-06-24T04:57:36;14.70;99.90
3528;DHT22;1778;47.966;7.854;2023-06-24T04:58:37;14.70;99.90
3528;DHT22;1778;47.966;7.854;2023-06-24T04:59:39;14.70;99.90
3528;DHT22;1778;47.966;7.854;2023-06-24T05:00:41;14.80;99.90
3528;DHT22;1778;47.966;7.854;2023-06-24T05:01:42;15.00;99.90
3528;DHT22;1778;47.966;7.854;2023-06-24T05:02:44;15.00;99.90
3528;DHT22;1778;47.966;7.854;2023-06-24T05:03:47;15.00;99.90
3528;DHT22;1778;47.966;7.854;2023-06-24T05:04:49;15.00;99.90
3528;DHT22;1778;47.966;7.854;2023-06-24T05:05:51;15.00;99.90
3528;DHT22;1778;47.966;7.854;2023-06-24T05:06:52;15.00;99.90
3528;DHT22;1778;47.966;7.854;2023-06-24T05:07:55;15.00;99.90
3528;DHT22;1778;47.966;7.854;2023-06-24T05:08:56;15.10;99.90
3528;DHT22;1778;47.966;7.854;2023-06-24T05:09:58;15.20;99.90
3528;DHT22;1778;47.966;7.854;2023-06-24T05:11:00;15.10;99.90
3528;DHT22;1778;47.966;7.854;2023-06-24T05:12:01;15.20;99.90
3528;DHT22;1778;47.966;7.854;2023-06-24T05:13:03;15.20;99.90
3528;DHT22;1778;47.966;7.854;2023-06-24T05:14:04;15.30;99.90
3528;DHT22;1778;47.966;7.854;2023-06-24T05:15:06;15.30;99.90
3528;DHT22;1778;47.966;7.854;2023-06-24T05:16:09;15.30;99.90
3528;DHT22;1778;47.966;7.854;2023-06-24T05:17:10;15.30;99.90
3528;DHT22;1778;47.966;7.854;2023-06-24T05:18:12;15.30;99.90
3528;DHT22;1778;47.966;7.854;2023-06-24T05:19:13;15.40;99.90
3528;DHT22;1778;47.966;7.854;2023-06-24T05:20:15;15.40;99.90
3528;DHT22;1778;47.966;7.854;2023-06-24T05:21:19;15.40;99.90
3528;DHT22;1778;47.966;7.854;2023-06-24T05:22:21;15.50;99.90
3528;DHT22;1778;47.966;7.854;2023-06-24T05:23:23;15.50;99.90
3528;DHT22;1778;47.966;7.854;2023-06-24T05:24:24;15.60;99.90
3528;DHT22;1778;47.966;7.854;2023-06-24T05:25:26;15.60;99.90
3528;DHT22;1778;47.966;7.854;2023-06-24T05:26:28;15.60;99.90
3528;DHT22;1778;47.966;7.854;2023-06-24T05:27:29;15.70;99.90
3528;DHT22;1778;47.966;7.854;2023-06-24T05:28:31;15.70;99.90
3528;DHT22;1778;47.966;7.854;2023-06-24T05:29:34;15.80;99.90
3528;DHT22;1778;47.966;7.854;2023-06-24T05:30:35;15.80;99.90
3528;DHT22;1778;47.966;7.854;2023-06-24T05:31:37;15.90;99.90
3528;DHT22;1778;47.966;7.854;2023-06-24T05:32:38;15.90;99.90
3528;DHT22;1778;47.966;7.854;2023-06-24T05:33:40;15.90;99.90
3528;DHT22;1778;47.966;7.854;2023-06-24T05:34:41;15.90;99.90
3528;DHT22;1778;47.966;7.854;2023-06-24T05:35:43;16.00;99.90
3528;DHT22;1778;47.966;7.854;2023-06-24T05:36:45;16.10;99.90
3528;DHT22;1778;47.966;7.854;2023-06-24T05:37:47;16.10;99.90
3528;DHT22;1778;47.966;7.854;2023-06-24T05:38:48;16.10;99.90
3528;DHT22;1778;47.966;7.854;2023-06-24T05:39:50;16.20;99.90
3528;DHT22;1778;47.966;7.854;2023-06-24T05:40:51;16.10;99.90
3528;DHT22;1778;47.966;7.854;2023-06-24T05:41:53;16.20;99.90
3528;DHT22;1778;47.966;7.854;2023-06-24T05:42:54;16.20;99.90
3528;DHT22;1778;47.966;7.854;2023-06-24T05:44:03;16.30;99.90
3528;DHT22;1778;47.966;7.854;2023-06-24T05:45:05;16.30;99.90
3528;DHT22;1778;47.966;7.854;2023-06-24T05:46:07;16.40;99.90
3528;DHT22;1778;47.966;7.854;2023-06-24T05:47:09;16.30;99.90
3528;DHT22;1778;47.966;7.854;2023-06-24T05:48:10;16.40;99.90
3528;DHT22;1778;47.966;7.854;2023-06-24T05:49:12;16.50;99.90
3528;DHT22;1778;47.966;7.854;2023-06-24T05:50:14;16.50;99.90
3528;DHT22;1778;47.966;7.854;2023-06-24T05:51:15;16.60;99.90
3528;DHT22;1778;47.966;7.854;2023-06-24T05:52:17;16.60;99.90
3528;DHT22;1778;47.966;7.854;2023-06-24T05:53:18;16.60;99.90
3528;DHT22;1778;47.966;7.854;2023-06-24T05:54:20;16.70;99.90
3528;DHT22;1778;47.966;7.854;2023-06-24T05:55:22;16.70;99.90
3528;DHT22;1778;47.966;7.854;2023-06-24T05:56:23;16.80;99.90
3528;DHT22;1778;47.966;7.854;2023-06-24T05:57:25;16.80;99.90
3528;DHT22;1778;47.966;7.854;2023-06-24T05:58:26;16.80;99.90
3528;DHT22;1778;47.966;7.854;2023-06-24T05:59:28;16.90;99.90
3528;DHT22;1778;47.966;7.854;2023-06-24T06:00:30;16.90;99.90
3528;DHT22;1778;47.966;7.854;2023-06-24T06:01:31;17.00;99.90
3528;DHT22;1778;47.966;7.854;2023-06-24T06:02:33;17.10;99.90
3528;DHT22;1778;47.966;7.854;2023-06-24T06:03:35;17.20;99.90
3528;DHT22;1778;47.966;7.854;2023-06-24T06:04:38;17.30;99.90
3528;DHT22;1778;47.966;7.854;2023-06-24T06:05:40;17.30;99.90
3528;DHT22;1778;47.966;7.854;2023-06-24T06:06:42;17.30;99.90
3528;DHT22;1778;47.966;7.854;2023-06-24T06:07:43;17.30;99.90
3528;DHT22;1778;47.966;7.854;2023-06-24T06:08:45;17.40;99.90
3528;DHT22;1778;47.966;7.854;2023-06-24T06:09:47;17.50;99.90
3528;DHT22;1778;47.966;7.854;2023-06-24T06:10:48;17.50;99.90
3528;DHT22;1778;47.966;7.854;2023-06-24T06:11:53;17.60;99.90
3528;DHT22;1778;47.966;7.854;2023-06-24T06:12:55;17.70;99.90
3528;DHT22;1778;47.966;7.854;2023-06-24T06:13:57;17.70;99.90
3528;DHT22;1778;47.966;7.854;2023-06-24T06:14:58;17.80;99.90
3528;DHT22;1778;47.966;7.854;2023-06-24T06:16:00;17.80;99.90
3528;DHT22;1778;47.966;7.854;2023-06-24T06:17:02;17.90;99.90
3528;DHT22;1778;47.966;7.854;2023-06-24T06:18:03;17.90;99.90
3528;DHT22;1778;47.966;7.854;2023-06-24T06:19:05;18.00;99.90
3528;DHT22;1778;47.966;7.854;2023-06-24T06:20:07;17.90;99.90
3528;DHT22;1778;47.966;7.854;2023-06-24T06:21:09;17.90;99.90
3528;DHT22;1778;47.966;7.854;2023-06-24T06:22:11;17.90;99.90
3528;DHT22;1778;47.966;7.854;2023-06-24T06:23:13;17.90;99.90
3528;DHT22;1778;47.966;7.854;2023-06-24T06:24:14;17.90;99.90
3528;DHT22;1778;47.966;7.854;2023-06-24T06:25:16;17.90;99.90
3528;DHT22;1778;47.966;7.854;2023-06-24T06:26:18;18.00;99.90
3528;DHT22;1778;47.966;7.854;2023-06-24T06:27:20;18.10;99.90
3528;DHT22;1778;47.966;7.854;2023-06-24T06:28:21;18.10;99.90
3528;DHT22;1778;47.966;7.854;2023-06-24T06:29:23;18.20;99.90
3528;DHT22;1778;47.966;7.854;2023-06-24T06:30:24;18.30;99.90
3528;DHT22;1778;47.966;7.854;2023-06-24T06:31:26;18.40;99.90
3528;DHT22;1778;47.966;7.854;2023-06-24T06:32:27;18.40;99.90
3528;DHT22;1778;47.966;7.854;2023-06-24T06:33:32;18.50;99.90
3528;DHT22;1778;47.966;7.854;2023-06-24T06:34:34;18.60;99.90
3528;DHT22;1778;47.966;7.854;2023-06-24T06:35:36;18.70;99.90
3528;DHT22;1778;47.966;7.854;2023-06-24T06:36:37;18.80;99.90
3528;DHT22;1778;47.966;7.854;2023-06-24T06:37:39;18.90;99.90
3528;DHT22;1778;47.966;7.854;2023-06-24T06:38:41;18.90;99.90
3528;DHT22;1778;47.966;7.854;2023-06-24T06:39:42;19.00;99.90
3528;DHT22;1778;47.966;7.854;2023-06-24T06:40:44;19.10;99.90
3528;DHT22;1778;47.966;7.854;2023-06-24T06:41:46;19.10;99.90
3528;DHT22;1778;47.966;7.854;2023-06-24T06:42:50;19.10;99.90
3528;DHT22;1778;47.966;7.854;2023-06-24T06:43:52;19.10;99.90
3528;DHT22;1778;47.966;7.854;2023-06-24T06:44:53;19.20;99.90
3528;DHT22;1778;47.966;7.854;2023-06-24T06:45:55;19.20;99.90
3528;DHT22;1778;47.966;7.854;2023-06-24T06:46:57;19.20;99.90
3528;DHT22;1778;47.966;7.854;2023-06-24T06:47:59;19.30;99.90
3528;DHT22;1778;47.966;7.854;2023-06-24T06:49:00;19.30;99.90
3528;DHT22;1778;47.966;7.854;2023-06-24T06:50:02;19.40;99.90
3528;DHT22;1778;47.966;7.854;2023-06-24T06:51:04;19.40;99.90
3528;DHT22;1778;47.966;7.854;2023-06-24T06:52:06;19.40;99.90
3528;DHT22;1778;47.966;7.854;2023-06-24T06:53:08;19.50;99.90
3528;DHT22;1778;47.966;7.854;2023-06-24T06:54:09;19.60;99.90
3528;DHT22;1778;47.966;7.854;2023-06-24T06:55:11;19.70;99.90
3528;DHT22;1778;47.966;7.854;2023-06-24T06:56:24;19.80;99.90
3528;DHT22;1778;47.966;7.854;2023-06-24T06:57:26;19.80;99.90
3528;DHT22;1778;47.966;7.854;2023-06-24T06:58:29;19.70;99.90
3528;DHT22;1778;47.966;7.854;2023-06-24T06:59:31;19.70;99.90
3528;DHT22;1778;47.966;7.854;2023-06-24T07:00:33;19.70;99.90
3528;DHT22;1778;47.966;7.854;2023-06-24T07:01:34;19.70;99.90
3528;DHT22;1778;47.966;7.854;2023-06-24T07:02:36;19.80;99.90
3528;DHT22;1778;47.966;7.854;2023-06-24T07:03:38;19.90;99.90
3528;DHT22;1778;47.966;7.854;2023-06-24T07:04:40;19.90;99.90
3528;DHT22;1778;47.966;7.854;2023-06-24T07:05:41;20.00;99.90